sensor_id;sensor_type;location;lat;lon;timestamp;P1;durP1;ratioP1;P2;durP2;ratioP2
5939;SDS011;2995;-31.998;115.906;2023-01-10T00:00:28;3.07;;;1.10;;
5939;SDS011;2995;-31.998;115.906;2023-01-10T00:03:00;3.77;;;1.23;;
5939;SDS011;2995;-31.998;115.906;2023-01-10T00:05:33;5.20;;;1.47;;
5939;SDS011;2995;-31.998;115.906;2023-01-10T00:08:05;2.60;;;1.20;;
5939;SDS011;2995;-31.998;115.906;2023-01-10T00:10:37;5.77;;;1.40;;
5939;SDS011;2995;-31.998;115.906;2023-01-10T00:13:11;3.57;;;1.53;;
5939;SDS011;2995;-31.998;115.906;2023-01-10T00:15:53;3.03;;;1.30;;
5939;SDS011;2995;-31.998;115.906;2023-01-10T00:18:24;4.37;;;1.50;;
5939;SDS011;2995;-31.998;115.906;2023-01-10T00:20:56;3.00;;;1.03;;
5939;SDS011;2995;-31.998;115.906;2023-01-10T00:23:32;4.50;;;1.20;;
5939;SDS011;2995;-31.998;115.906;2023-01-10T00:26:03;6.40;;;1.13;;
5939;SDS011;2995;-31.998;115.906;2023-01-10T00:28:35;6.03;;;1.10;;
5939;SDS011;2995;-31.998;115.906;2023-01-10T00:31:09;3.23;;;1.20;;
5939;SDS011;2995;-31.998;115.906;2023-01-10T00:33:42;5.50;;;1.57;;
5939;SDS011;2995;-31.998;115.906;2023-01-10T00:36:13;2.60;;;1.33;;
5939;SDS011;2995;-31.998;115.906;2023-01-10T00:38:44;2.60;;;1.13;;
5939;SDS011;2995;-31.998;115.906;2023-01-10T00:41:15;3.10;;;1.27;;
5939;SDS011;2995;-31.998;115.906;2023-01-10T00:44:03;2.93;;;1.07;;
5939;SDS011;2995;-31.998;115.906;2023-01-10T00:46:36;4.10;;;1.20;;
5939;SDS011;2995;-31.998;115.906;2023-01-10T00:49:07;4.80;;;1.40;;
5939;SDS011;2995;-31.998;115.906;2023-01-10T00:51:45;6.83;;;1.63;;
5939;SDS011;2995;-31.998;115.906;2023-01-10T00:54:16;2.10;;;1.00;;
5939;SDS011;2995;-31.998;115.906;2023-01-10T00:56:47;2.60;;;1.10;;
5939;SDS011;2995;-31.998;115.906;2023-01-10T00:59:19;2.83;;;1.20;;
5939;SDS011;2995;-31.998;115.906;2023-01-10T01:01:52;2.57;;;1.20;;
5939;SDS011;2995;-31.998;115.906;2023-01-10T01:04:23;2.60;;;1.40;;
5939;SDS011;2995;-31.998;115.906;2023-01-10T01:06:59;4.88;;;1.13;;
5939;SDS011;2995;-31.998;115.906;2023-01-10T01:09:31;4.80;;;1.30;;
5939;SDS011;2995;-31.998;115.906;2023-01-10T01:12:22;5.68;;;1.63;;
5939;SDS011;2995;-31.998;115.906;2023-01-10T01:14:53;2.40;;;1.00;;
5939;SDS011;2995;-31.998;115.906;2023-01-10T01:17:26;3.60;;;1.20;;
5939;SDS011;2995;-31.998;115.906;2023-01-10T01:19:58;3.67;;;1.20;;
5939;SDS011;2995;-31.998;115.906;2023-01-10T01:22:29;2.53;;;1.10;;
5939;SDS011;2995;-31.998;115.906;2023-01-10T01:25:00;3.83;;;1.20;;
5939;SDS011;2995;-31.998;115.906;2023-01-10T01:27:31;6.38;;;1.35;;
5939;SDS011;2995;-31.998;115.906;2023-01-10T01:30:03;1.92;;;1.20;;
5939;SDS011;2995;-31.998;115.906;2023-01-10T01:32:37;3.92;;;1.38;;
5939;SDS011;2995;-31.998;115.906;2023-01-10T01:35:09;4.22;;;1.38;;
5939;SDS011;2995;-31.998;115.906;2023-01-10T01:37:43;2.70;;;1.27;;
5939;SDS011;2995;-31.998;115.906;2023-01-10T01:40:15;4.63;;;1.40;;
5939;SDS011;2995;-31.998;115.906;2023-01-10T01:42:47;2.53;;;1.17;;
5939;SDS011;2995;-31.998;115.906;2023-01-10T01:48:14;4.70;;;1.60;;
5939;SDS011;2995;-31.998;115.906;2023-01-10T01:50:52;2.87;;;1.20;;
5939;SDS011;2995;-31.998;115.906;2023-01-10T01:53:31;6.90;;;1.23;;
5939;SDS011;2995;-31.998;115.906;2023-01-10T01:56:07;3.10;;;1.40;;
5939;SDS011;2995;-31.998;115.906;2023-01-10T01:58:43;4.27;;;1.10;;
5939;SDS011;2995;-31.998;115.906;2023-01-10T02:01:18;7.30;;;1.90;;
5939;SDS011;2995;-31.998;115.906;2023-01-10T02:03:53;2.00;;;1.20;;
5939;SDS011;2995;-31.998;115.906;2023-01-10T02:06:29;4.40;;;1.40;;
5939;SDS011;2995;-31.998;115.906;2023-01-10T02:09:02;3.40;;;1.50;;
5939;SDS011;2995;-31.998;115.906;2023-01-10T02:11:40;5.50;;;1.43;;
5939;SDS011;2995;-31.998;115.906;2023-01-10T02:14:11;5.90;;;1.43;;
5939;SDS011;2995;-31.998;115.906;2023-01-10T02:16:43;4.23;;;1.47;;
5939;SDS011;2995;-31.998;115.906;2023-01-10T02:19:26;4.07;;;1.40;;
5939;SDS011;2995;-31.998;115.906;2023-01-10T02:28:07;3.10;;;1.40;;
5939;SDS011;2995;-31.998;115.906;2023-01-10T02:31:19;2.43;;;1.20;;
5939;SDS011;2995;-31.998;115.906;2023-01-10T02:34:07;6.53;;;1.50;;
5939;SDS011;2995;-31.998;115.906;2023-01-10T02:36:43;3.47;;;1.43;;
5939;SDS011;2995;-31.998;115.906;2023-01-10T02:39:22;3.50;;;1.40;;
5939;SDS011;2995;-31.998;115.906;2023-01-10T02:42:01;5.13;;;1.43;;
5939;SDS011;2995;-31.998;115.906;2023-01-10T02:44:37;2.27;;;1.20;;
5939;SDS011;2995;-31.998;115.906;2023-01-10T02:47:13;4.00;;;1.30;;
5939;SDS011;2995;-31.998;115.906;2023-01-10T02:49:46;3.53;;;1.30;;
5939;SDS011;2995;-31.998;115.906;2023-01-10T02:52:18;4.80;;;1.50;;
5939;SDS011;2995;-31.998;115.906;2023-01-10T02:54:55;4.00;;;1.50;;
5939;SDS011;2995;-31.998;115.906;2023-01-10T02:57:31;9.80;;;1.70;;
5939;SDS011;2995;-31.998;115.906;2023-01-10T03:00:24;2.80;;;1.30;;
5939;SDS011;2995;-31.998;115.906;2023-01-10T03:03:14;3.33;;;1.20;;
5939;SDS011;2995;-31.998;115.906;2023-01-10T03:06:01;2.90;;;1.37;;
5939;SDS011;2995;-31.998;115.906;2023-01-10T03:08:48;3.53;;;1.40;;
5939;SDS011;2995;-31.998;115.906;2023-01-10T03:11:22;5.03;;;1.20;;
5939;SDS011;2995;-31.998;115.906;2023-01-10T03:14:07;3.37;;;1.40;;
5939;SDS011;2995;-31.998;115.906;2023-01-10T03:16:43;7.43;;;1.60;;
5939;SDS011;2995;-31.998;115.906;2023-01-10T03:19:19;3.17;;;1.63;;
5939;SDS011;2995;-31.998;115.906;2023-01-10T03:21:55;2.43;;;1.40;;
5939;SDS011;2995;-31.998;115.906;2023-01-10T03:24:29;3.80;;;1.50;;
5939;SDS011;2995;-31.998;115.906;2023-01-10T03:27:05;4.43;;;1.60;;
5939;SDS011;2995;-31.998;115.906;2023-01-10T03:29:41;2.60;;;1.40;;
5939;SDS011;2995;-31.998;115.906;2023-01-10T03:32:14;4.50;;;1.40;;
5939;SDS011;2995;-31.998;115.906;2023-01-10T03:34:49;3.10;;;1.20;;
5939;SDS011;2995;-31.998;115.906;2023-01-10T03:37:24;3.67;;;1.40;;
5939;SDS011;2995;-31.998;115.906;2023-01-10T03:40:06;3.07;;;1.30;;
5939;SDS011;2995;-31.998;115.906;2023-01-10T03:42:44;4.00;;;1.57;;
5939;SDS011;2995;-31.998;115.906;2023-01-10T03:45:37;2.60;;;1.47;;
5939;SDS011;2995;-31.998;115.906;2023-01-10T03:48:15;2.57;;;1.30;;
5939;SDS011;2995;-31.998;115.906;2023-01-10T03:50:50;3.40;;;1.20;;
5939;SDS011;2995;-31.998;115.906;2023-01-10T03:53:24;5.47;;;1.60;;
5939;SDS011;2995;-31.998;115.906;2023-01-10T03:55:56;3.40;;;1.40;;
5939;SDS011;2995;-31.998;115.906;2023-01-10T03:58:28;5.00;;;1.17;;
5939;SDS011;2995;-31.998;115.906;2023-01-10T04:00:59;2.43;;;1.30;;
5939;SDS011;2995;-31.998;115.906;2023-01-10T04:03:30;4.77;;;1.40;;
5939;SDS011;2995;-31.998;115.906;2023-01-10T04:06:02;2.70;;;1.30;;
5939;SDS011;2995;-31.998;115.906;2023-01-10T04:08:36;3.27;;;1.20;;
5939;SDS011;2995;-31.998;115.906;2023-01-10T04:11:07;5.90;;;1.37;;
5939;SDS011;2995;-31.998;115.906;2023-01-10T04:13:39;3.00;;;1.30;;
5939;SDS011;2995;-31.998;115.906;2023-01-10T04:16:10;2.20;;;1.20;;
5939;SDS011;2995;-31.998;115.906;2023-01-10T04:18:41;2.50;;;1.20;;
5939;SDS011;2995;-31.998;115.906;2023-01-10T04:21:13;3.40;;;1.17;;
5939;SDS011;2995;-31.998;115.906;2023-01-10T04:23:46;3.93;;;1.67;;
5939;SDS011;2995;-31.998;115.906;2023-01-10T04:26:17;8.00;;;1.67;;
5939;SDS011;2995;-31.998;115.906;2023-01-10T04:28:48;5.10;;;1.50;;
5939;SDS011;2995;-31.998;115.906;2023-01-10T04:31:19;8.47;;;1.67;;
5939;SDS011;2995;-31.998;115.906;2023-01-10T04:33:52;6.13;;;1.90;;
5939;SDS011;2995;-31.998;115.906;2023-01-10T04:36:23;7.10;;;2.40;;
5939;SDS011;2995;-31.998;115.906;2023-01-10T04:38:57;8.80;;;2.20;;
5939;SDS011;2995;-31.998;115.906;2023-01-10T04:41:28;5.03;;;1.97;;
5939;SDS011;2995;-31.998;115.906;2023-01-10T04:43:59;6.63;;;1.80;;
5939;SDS011;2995;-31.998;115.906;2023-01-10T04:46:30;5.37;;;1.90;;
5939;SDS011;2995;-31.998;115.906;2023-01-10T04:49:02;6.43;;;2.53;;
5939;SDS011;2995;-31.998;115.906;2023-01-10T04:51:33;5.43;;;1.57;;
5939;SDS011;2995;-31.998;115.906;2023-01-10T04:54:06;5.63;;;2.07;;
5939;SDS011;2995;-31.998;115.906;2023-01-10T04:56:38;7.43;;;1.70;;
5939;SDS011;2995;-31.998;115.906;2023-01-10T04:59:09;8.40;;;2.00;;
5939;SDS011;2995;-31.998;115.906;2023-01-10T05:01:40;5.67;;;1.50;;
5939;SDS011;2995;-31.998;115.906;2023-01-10T05:04:11;7.53;;;2.40;;
5939;SDS011;2995;-31.998;115.906;2023-01-10T05:06:43;6.93;;;1.93;;
5939;SDS011;2995;-31.998;115.906;2023-01-10T05:09:16;6.63;;;2.10;;
5939;SDS011;2995;-31.998;115.906;2023-01-10T05:11:47;5.30;;;1.53;;
5939;SDS011;2995;-31.998;115.906;2023-01-10T05:14:19;5.73;;;1.77;;
5939;SDS011;2995;-31.998;115.906;2023-01-10T05:16:50;5.63;;;2.13;;
5939;SDS011;2995;-31.998;115.906;2023-01-10T05:19:21;15.80;;;2.47;;
5939;SDS011;2995;-31.998;115.906;2023-01-10T05:21:53;8.70;;;1.80;;
5939;SDS011;2995;-31.998;115.906;2023-01-10T05:24:26;5.17;;;2.00;;
5939;SDS011;2995;-31.998;115.906;2023-01-10T05:26:57;7.70;;;2.53;;
5939;SDS011;2995;-31.998;115.906;2023-01-10T05:29:29;5.57;;;2.07;;
5939;SDS011;2995;-31.998;115.906;2023-01-10T05:32:01;5.37;;;2.10;;
5939;SDS011;2995;-31.998;115.906;2023-01-10T05:34:33;6.17;;;2.17;;
5939;SDS011;2995;-31.998;115.906;2023-01-10T05:37:04;12.17;;;2.40;;
5939;SDS011;2995;-31.998;115.906;2023-01-10T05:39:37;5.20;;;2.27;;
5939;SDS011;2995;-31.998;115.906;2023-01-10T05:42:08;4.70;;;2.13;;
5939;SDS011;2995;-31.998;115.906;2023-01-10T05:44:40;7.87;;;2.27;;
5939;SDS011;2995;-31.998;115.906;2023-01-10T05:47:11;8.73;;;2.50;;
5939;SDS011;2995;-31.998;115.906;2023-01-10T05:49:42;8.53;;;2.63;;
5939;SDS011;2995;-31.998;115.906;2023-01-10T05:52:14;7.57;;;2.57;;
5939;SDS011;2995;-31.998;115.906;2023-01-10T05:54:47;10.03;;;2.10;;
5939;SDS011;2995;-31.998;115.906;2023-01-10T05:57:18;13.23;;;3.00;;
5939;SDS011;2995;-31.998;115.906;2023-01-10T05:59:49;4.83;;;2.43;;
5939;SDS011;2995;-31.998;115.906;2023-01-10T06:02:21;7.17;;;2.23;;
5939;SDS011;2995;-31.998;115.906;2023-01-10T06:04:52;7.80;;;2.33;;
5939;SDS011;2995;-31.998;115.906;2023-01-10T06:07:23;10.43;;;2.80;;
5939;SDS011;2995;-31.998;115.906;2023-01-10T06:09:57;10.20;;;3.73;;
5939;SDS011;2995;-31.998;115.906;2023-01-10T06:12:28;9.13;;;3.10;;
5939;SDS011;2995;-31.998;115.906;2023-01-10T06:14:59;7.40;;;3.00;;
5939;SDS011;2995;-31.998;115.906;2023-01-10T06:17:31;10.00;;;2.63;;
5939;SDS011;2995;-31.998;115.906;2023-01-10T06:20:02;9.37;;;3.20;;
5939;SDS011;2995;-31.998;115.906;2023-01-10T06:22:34;11.30;;;3.17;;
5939;SDS011;2995;-31.998;115.906;2023-01-10T06:25:10;4.90;;;2.40;;
5939;SDS011;2995;-31.998;115.906;2023-01-10T06:27:42;7.70;;;2.63;;
5939;SDS011;2995;-31.998;115.906;2023-01-10T06:30:14;4.93;;;2.60;;
5939;SDS011;2995;-31.998;115.906;2023-01-10T06:32:45;7.27;;;3.30;;
5939;SDS011;2995;-31.998;115.906;2023-01-10T06:35:16;8.13;;;2.70;;
5939;SDS011;2995;-31.998;115.906;2023-01-10T06:37:47;8.47;;;2.33;;
5939;SDS011;2995;-31.998;115.906;2023-01-10T06:40:21;8.97;;;3.87;;
5939;SDS011;2995;-31.998;115.906;2023-01-10T06:42:53;10.83;;;3.30;;
5939;SDS011;2995;-31.998;115.906;2023-01-10T06:45:25;7.63;;;3.00;;
5939;SDS011;2995;-31.998;115.906;2023-01-10T06:47:56;7.40;;;2.93;;
5939;SDS011;2995;-31.998;115.906;2023-01-10T06:50:27;10.27;;;3.40;;
5939;SDS011;2995;-31.998;115.906;2023-01-10T06:52:59;8.67;;;2.37;;
5939;SDS011;2995;-31.998;115.906;2023-01-10T06:55:34;9.20;;;3.00;;
5939;SDS011;2995;-31.998;115.906;2023-01-10T06:58:05;9.00;;;2.90;;
5939;SDS011;2995;-31.998;115.906;2023-01-10T07:00:37;8.80;;;3.17;;
5939;SDS011;2995;-31.998;115.906;2023-01-10T07:03:08;9.50;;;3.43;;
5939;SDS011;2995;-31.998;115.906;2023-01-10T07:05:39;11.70;;;3.80;;
5939;SDS011;2995;-31.998;115.906;2023-01-10T07:08:10;11.30;;;4.20;;
5939;SDS011;2995;-31.998;115.906;2023-01-10T07:10:44;8.77;;;3.10;;
5939;SDS011;2995;-31.998;115.906;2023-01-10T07:13:15;11.33;;;4.63;;
5939;SDS011;2995;-31.998;115.906;2023-01-10T07:15:46;10.80;;;2.90;;
5939;SDS011;2995;-31.998;115.906;2023-01-10T07:18:17;6.37;;;2.80;;
5939;SDS011;2995;-31.998;115.906;2023-01-10T07:20:48;12.90;;;3.13;;
5939;SDS011;2995;-31.998;115.906;2023-01-10T07:23:20;13.70;;;3.70;;
5939;SDS011;2995;-31.998;115.906;2023-01-10T07:25:54;15.00;;;3.37;;
5939;SDS011;2995;-31.998;115.906;2023-01-10T07:28:25;11.53;;;3.40;;
5939;SDS011;2995;-31.998;115.906;2023-01-10T07:30:57;11.90;;;3.17;;
5939;SDS011;2995;-31.998;115.906;2023-01-10T07:33:28;12.20;;;3.67;;
5939;SDS011;2995;-31.998;115.906;2023-01-10T07:36:00;8.10;;;3.00;;
5939;SDS011;2995;-31.998;115.906;2023-01-10T07:38:32;10.30;;;3.20;;
5939;SDS011;2995;-31.998;115.906;2023-01-10T07:41:05;9.27;;;2.90;;
5939;SDS011;2995;-31.998;115.906;2023-01-10T07:43:36;9.80;;;3.07;;
5939;SDS011;2995;-31.998;115.906;2023-01-10T07:46:08;14.10;;;3.83;;
5939;SDS011;2995;-31.998;115.906;2023-01-10T07:48:40;8.10;;;3.27;;
5939;SDS011;2995;-31.998;115.906;2023-01-10T07:51:12;9.10;;;3.20;;
5939;SDS011;2995;-31.998;115.906;2023-01-10T07:53:43;7.67;;;3.10;;
5939;SDS011;2995;-31.998;115.906;2023-01-10T07:56:16;12.50;;;3.90;;
5939;SDS011;2995;-31.998;115.906;2023-01-10T07:58:47;11.60;;;3.80;;
5939;SDS011;2995;-31.998;115.906;2023-01-10T08:01:19;16.17;;;4.20;;
5939;SDS011;2995;-31.998;115.906;2023-01-10T08:03:51;13.07;;;3.87;;
5939;SDS011;2995;-31.998;115.906;2023-01-10T08:06:22;9.07;;;3.50;;
5939;SDS011;2995;-31.998;115.906;2023-01-10T08:08:54;10.80;;;3.77;;
5939;SDS011;2995;-31.998;115.906;2023-01-10T08:11:27;10.03;;;2.97;;
5939;SDS011;2995;-31.998;115.906;2023-01-10T08:13:58;18.60;;;4.67;;
5939;SDS011;2995;-31.998;115.906;2023-01-10T08:16:29;13.80;;;4.17;;
5939;SDS011;2995;-31.998;115.906;2023-01-10T08:19:01;11.53;;;3.43;;
5939;SDS011;2995;-31.998;115.906;2023-01-10T08:21:32;10.53;;;3.53;;
5939;SDS011;2995;-31.998;115.906;2023-01-10T08:24:03;20.43;;;3.70;;
5939;SDS011;2995;-31.998;115.906;2023-01-10T08:26:37;14.27;;;4.10;;
5939;SDS011;2995;-31.998;115.906;2023-01-10T08:29:08;16.13;;;3.70;;
5939;SDS011;2995;-31.998;115.906;2023-01-10T08:31:40;18.30;;;3.77;;
5939;SDS011;2995;-31.998;115.906;2023-01-10T08:34:12;17.97;;;5.43;;
5939;SDS011;2995;-31.998;115.906;2023-01-10T08:36:43;16.87;;;4.17;;
5939;SDS011;2995;-31.998;115.906;2023-01-10T08:39:17;19.33;;;4.50;;
5939;SDS011;2995;-31.998;115.906;2023-01-10T08:41:53;16.27;;;5.37;;
5939;SDS011;2995;-31.998;115.906;2023-01-10T08:44:25;21.07;;;4.40;;
5939;SDS011;2995;-31.998;115.906;2023-01-10T08:46:56;18.60;;;4.63;;
5939;SDS011;2995;-31.998;115.906;2023-01-10T08:49:27;13.03;;;3.80;;
5939;SDS011;2995;-31.998;115.906;2023-01-10T08:51:59;15.87;;;3.90;;
5939;SDS011;2995;-31.998;115.906;2023-01-10T08:54:31;12.70;;;3.70;;
5939;SDS011;2995;-31.998;115.906;2023-01-10T08:57:04;12.80;;;4.13;;
5939;SDS011;2995;-31.998;115.906;2023-01-10T08:59:36;14.60;;;3.63;;
5939;SDS011;2995;-31.998;115.906;2023-01-10T09:02:08;15.97;;;4.30;;
5939;SDS011;2995;-31.998;115.906;2023-01-10T09:04:41;9.50;;;3.43;;
5939;SDS011;2995;-31.998;115.906;2023-01-10T09:07:12;10.77;;;3.83;;
5939;SDS011;2995;-31.998;115.906;2023-01-10T09:09:43;14.87;;;4.13;;
5939;SDS011;2995;-31.998;115.906;2023-01-10T09:12:17;10.90;;;3.80;;
5939;SDS011;2995;-31.998;115.906;2023-01-10T09:15:04;12.93;;;3.73;;
5939;SDS011;2995;-31.998;115.906;2023-01-10T09:17:36;12.60;;;3.93;;
5939;SDS011;2995;-31.998;115.906;2023-01-10T09:20:07;19.23;;;4.07;;
5939;SDS011;2995;-31.998;115.906;2023-01-10T09:22:39;10.73;;;4.03;;
5939;SDS011;2995;-31.998;115.906;2023-01-10T09:25:10;12.40;;;3.77;;
5939;SDS011;2995;-31.998;115.906;2023-01-10T09:27:43;13.47;;;3.70;;
5939;SDS011;2995;-31.998;115.906;2023-01-10T09:30:15;12.60;;;4.03;;
5939;SDS011;2995;-31.998;115.906;2023-01-10T09:32:48;14.33;;;3.17;;
5939;SDS011;2995;-31.998;115.906;2023-01-10T09:35:20;12.53;;;3.03;;
5939;SDS011;2995;-31.998;115.906;2023-01-10T09:37:53;12.50;;;4.03;;
5939;SDS011;2995;-31.998;115.906;2023-01-10T09:40:27;15.07;;;4.00;;
5939;SDS011;2995;-31.998;115.906;2023-01-10T09:43:22;20.03;;;4.30;;
5939;SDS011;2995;-31.998;115.906;2023-01-10T09:46:03;15.77;;;4.40;;
5939;SDS011;2995;-31.998;115.906;2023-01-10T09:48:40;16.83;;;3.90;;
5939;SDS011;2995;-31.998;115.906;2023-01-10T09:51:17;11.90;;;3.57;;
5939;SDS011;2995;-31.998;115.906;2023-01-10T09:53:56;18.53;;;5.07;;
5939;SDS011;2995;-31.998;115.906;2023-01-10T09:56:30;15.50;;;4.37;;
5939;SDS011;2995;-31.998;115.906;2023-01-10T09:59:05;21.03;;;4.20;;
5939;SDS011;2995;-31.998;115.906;2023-01-10T10:01:43;11.97;;;3.60;;
5939;SDS011;2995;-31.998;115.906;2023-01-10T10:04:18;14.83;;;4.33;;
5939;SDS011;2995;-31.998;115.906;2023-01-10T10:06:53;16.77;;;4.07;;
5939;SDS011;2995;-31.998;115.906;2023-01-10T10:09:25;18.17;;;5.07;;
5939;SDS011;2995;-31.998;115.906;2023-01-10T10:12:01;15.60;;;4.40;;
5939;SDS011;2995;-31.998;115.906;2023-01-10T10:14:51;13.10;;;3.87;;
5939;SDS011;2995;-31.998;115.906;2023-01-10T10:17:36;13.93;;;3.83;;
5939;SDS011;2995;-31.998;115.906;2023-01-10T10:20:15;15.53;;;4.20;;
5939;SDS011;2995;-31.998;115.906;2023-01-10T10:22:59;19.53;;;3.83;;
5939;SDS011;2995;-31.998;115.906;2023-01-10T10:25:45;16.10;;;4.07;;
5939;SDS011;2995;-31.998;115.906;2023-01-10T10:31:33;13.30;;;3.80;;
5939;SDS011;2995;-31.998;115.906;2023-01-10T10:34:15;10.00;;;3.43;;
5939;SDS011;2995;-31.998;115.906;2023-01-10T10:36:53;23.70;;;4.10;;
5939;SDS011;2995;-31.998;115.906;2023-01-10T10:39:34;11.37;;;3.30;;
5939;SDS011;2995;-31.998;115.906;2023-01-10T10:42:10;11.93;;;3.23;;
5939;SDS011;2995;-31.998;115.906;2023-01-10T10:44:44;10.83;;;3.30;;
5939;SDS011;2995;-31.998;115.906;2023-01-10T10:47:23;9.93;;;3.20;;
5939;SDS011;2995;-31.998;115.906;2023-01-10T10:49:59;16.30;;;4.47;;
5939;SDS011;2995;-31.998;115.906;2023-01-10T10:52:40;11.63;;;3.03;;
5939;SDS011;2995;-31.998;115.906;2023-01-10T10:55:12;11.57;;;3.13;;
5939;SDS011;2995;-31.998;115.906;2023-01-10T10:57:44;28.80;;;4.57;;
5939;SDS011;2995;-31.998;115.906;2023-01-10T11:00:16;15.40;;;3.47;;
5939;SDS011;2995;-31.998;115.906;2023-01-10T11:02:52;7.27;;;3.07;;
5939;SDS011;2995;-31.998;115.906;2023-01-10T11:05:28;15.40;;;3.70;;
5939;SDS011;2995;-31.998;115.906;2023-01-10T11:08:05;11.20;;;3.30;;
5939;SDS011;2995;-31.998;115.906;2023-01-10T11:10:38;13.53;;;3.67;;
5939;SDS011;2995;-31.998;115.906;2023-01-10T11:13:14;12.55;;;3.90;;
5939;SDS011;2995;-31.998;115.906;2023-01-10T11:15:50;12.60;;;3.03;;
5939;SDS011;2995;-31.998;115.906;2023-01-10T11:18:24;11.97;;;2.97;;
5939;SDS011;2995;-31.998;115.906;2023-01-10T11:20:56;15.50;;;3.67;;
5939;SDS011;2995;-31.998;115.906;2023-01-10T11:23:35;13.20;;;3.40;;
5939;SDS011;2995;-31.998;115.906;2023-01-10T11:26:10;12.97;;;3.00;;
5939;SDS011;2995;-31.998;115.906;2023-01-10T11:29:02;14.00;;;3.43;;
5939;SDS011;2995;-31.998;115.906;2023-01-10T11:31:35;13.07;;;3.47;;
5939;SDS011;2995;-31.998;115.906;2023-01-10T11:34:16;9.70;;;2.70;;
5939;SDS011;2995;-31.998;115.906;2023-01-10T11:36:57;13.27;;;3.10;;
5939;SDS011;2995;-31.998;115.906;2023-01-10T11:39:30;11.63;;;3.30;;
5939;SDS011;2995;-31.998;115.906;2023-01-10T11:42:17;11.40;;;3.30;;
5939;SDS011;2995;-31.998;115.906;2023-01-10T11:45:03;8.93;;;2.53;;
5939;SDS011;2995;-31.998;115.906;2023-01-10T11:47:52;8.67;;;3.57;;
5939;SDS011;2995;-31.998;115.906;2023-01-10T11:50:29;11.70;;;2.60;;
5939;SDS011;2995;-31.998;115.906;2023-01-10T11:53:03;11.97;;;3.10;;
5939;SDS011;2995;-31.998;115.906;2023-01-10T11:55:35;5.87;;;2.40;;
5939;SDS011;2995;-31.998;115.906;2023-01-10T11:58:09;15.83;;;3.00;;
5939;SDS011;2995;-31.998;115.906;2023-01-10T12:00:42;9.80;;;2.43;;
5939;SDS011;2995;-31.998;115.906;2023-01-10T12:03:15;14.13;;;2.97;;
5939;SDS011;2995;-31.998;115.906;2023-01-10T12:05:52;8.93;;;3.07;;
5939;SDS011;2995;-31.998;115.906;2023-01-10T12:08:26;12.03;;;3.20;;
5939;SDS011;2995;-31.998;115.906;2023-01-10T12:11:00;12.30;;;2.30;;
5939;SDS011;2995;-31.998;115.906;2023-01-10T12:13:42;11.43;;;3.20;;
5939;SDS011;2995;-31.998;115.906;2023-01-10T12:16:16;9.63;;;2.90;;
5939;SDS011;2995;-31.998;115.906;2023-01-10T12:18:48;10.83;;;2.70;;
5939;SDS011;2995;-31.998;115.906;2023-01-10T12:21:27;14.73;;;3.13;;
5939;SDS011;2995;-31.998;115.906;2023-01-10T12:24:03;15.17;;;2.90;;
5939;SDS011;2995;-31.998;115.906;2023-01-10T12:26:39;12.70;;;2.93;;
5939;SDS011;2995;-31.998;115.906;2023-01-10T12:29:14;13.50;;;3.77;;
5939;SDS011;2995;-31.998;115.906;2023-01-10T12:31:48;13.43;;;3.10;;
5939;SDS011;2995;-31.998;115.906;2023-01-10T12:34:21;14.13;;;3.40;;
5939;SDS011;2995;-31.998;115.906;2023-01-10T12:36:58;8.53;;;3.30;;
5939;SDS011;2995;-31.998;115.906;2023-01-10T12:39:35;13.33;;;3.23;;
5939;SDS011;2995;-31.998;115.906;2023-01-10T12:42:17;10.97;;;2.90;;
5939;SDS011;2995;-31.998;115.906;2023-01-10T12:45:15;12.37;;;3.20;;
5939;SDS011;2995;-31.998;115.906;2023-01-10T12:47:54;10.07;;;3.50;;
5939;SDS011;2995;-31.998;115.906;2023-01-10T12:50:32;12.20;;;3.93;;
5939;SDS011;2995;-31.998;115.906;2023-01-10T12:53:10;9.50;;;3.03;;
5939;SDS011;2995;-31.998;115.906;2023-01-10T12:55:46;12.60;;;3.40;;
5939;SDS011;2995;-31.998;115.906;2023-01-10T12:58:22;15.67;;;2.97;;
5939;SDS011;2995;-31.998;115.906;2023-01-10T13:01:02;12.60;;;3.60;;
5939;SDS011;2995;-31.998;115.906;2023-01-10T13:03:35;9.57;;;2.43;;
5939;SDS011;2995;-31.998;115.906;2023-01-10T13:06:09;15.13;;;3.73;;
5939;SDS011;2995;-31.998;115.906;2023-01-10T13:08:50;15.00;;;4.00;;
5939;SDS011;2995;-31.998;115.906;2023-01-10T13:11:23;11.63;;;3.40;;
5939;SDS011;2995;-31.998;115.906;2023-01-10T13:13:59;10.30;;;3.17;;
5939;SDS011;2995;-31.998;115.906;2023-01-10T13:16:39;13.90;;;3.30;;
5939;SDS011;2995;-31.998;115.906;2023-01-10T13:19:22;13.67;;;2.90;;
5939;SDS011;2995;-31.998;115.906;2023-01-10T13:24:58;15.33;;;3.10;;
5939;SDS011;2995;-31.998;115.906;2023-01-10T13:27:33;10.13;;;2.90;;
5939;SDS011;2995;-31.998;115.906;2023-01-10T13:30:04;6.97;;;3.57;;
5939;SDS011;2995;-31.998;115.906;2023-01-10T13:32:54;7.77;;;2.80;;
5939;SDS011;2995;-31.998;115.906;2023-01-10T13:35:39;8.90;;;2.63;;
5939;SDS011;2995;-31.998;115.906;2023-01-10T13:38:17;12.53;;;2.90;;
5939;SDS011;2995;-31.998;115.906;2023-01-10T13:41:00;7.37;;;2.53;;
5939;SDS011;2995;-31.998;115.906;2023-01-10T13:55:27;15.50;;;3.10;;
5939;SDS011;2995;-31.998;115.906;2023-01-10T13:58:18;13.47;;;3.87;;
5939;SDS011;2995;-31.998;115.906;2023-01-10T14:01:29;14.07;;;3.13;;
5939;SDS011;2995;-31.998;115.906;2023-01-10T14:04:20;12.37;;;3.30;;
5939;SDS011;2995;-31.998;115.906;2023-01-10T14:06:53;13.20;;;3.33;;
5939;SDS011;2995;-31.998;115.906;2023-01-10T14:09:39;9.87;;;3.50;;
5939;SDS011;2995;-31.998;115.906;2023-01-10T14:12:23;10.80;;;3.40;;
5939;SDS011;2995;-31.998;115.906;2023-01-10T14:15:02;11.57;;;3.13;;
5939;SDS011;2995;-31.998;115.906;2023-01-10T14:17:36;16.73;;;3.73;;
5939;SDS011;2995;-31.998;115.906;2023-01-10T14:20:15;10.70;;;3.60;;
5939;SDS011;2995;-31.998;115.906;2023-01-10T14:23:02;13.07;;;3.40;;
5939;SDS011;2995;-31.998;115.906;2023-01-10T14:25:35;12.63;;;3.20;;
5939;SDS011;2995;-31.998;115.906;2023-01-10T14:28:14;10.03;;;3.30;;
5939;SDS011;2995;-31.998;115.906;2023-01-10T14:30:55;7.33;;;3.27;;
5939;SDS011;2995;-31.998;115.906;2023-01-10T14:33:30;16.23;;;3.00;;
5939;SDS011;2995;-31.998;115.906;2023-01-10T14:36:06;10.70;;;3.53;;
5939;SDS011;2995;-31.998;115.906;2023-01-10T14:38:45;11.13;;;3.43;;
5939;SDS011;2995;-31.998;115.906;2023-01-10T14:41:18;11.27;;;2.93;;
5939;SDS011;2995;-31.998;115.906;2023-01-10T14:43:56;13.73;;;3.60;;
5939;SDS011;2995;-31.998;115.906;2023-01-10T14:46:33;8.43;;;3.10;;
5939;SDS011;2995;-31.998;115.906;2023-01-10T14:49:19;12.47;;;3.33;;
5939;SDS011;2995;-31.998;115.906;2023-01-10T14:51:52;10.93;;;3.43;;
5939;SDS011;2995;-31.998;115.906;2023-01-10T14:54:26;19.27;;;3.70;;
5939;SDS011;2995;-31.998;115.906;2023-01-10T14:56:57;11.37;;;3.00;;
5939;SDS011;2995;-31.998;115.906;2023-01-10T14:59:30;10.70;;;2.73;;
5939;SDS011;2995;-31.998;115.906;2023-01-10T15:02:09;13.97;;;3.40;;
5939;SDS011;2995;-31.998;115.906;2023-01-10T15:04:48;8.77;;;2.97;;
5939;SDS011;2995;-31.998;115.906;2023-01-10T15:07:22;10.13;;;2.97;;
5939;SDS011;2995;-31.998;115.906;2023-01-10T15:09:54;10.70;;;3.20;;
5939;SDS011;2995;-31.998;115.906;2023-01-10T15:12:29;7.60;;;3.27;;
5939;SDS011;2995;-31.998;115.906;2023-01-10T15:15:04;12.33;;;3.10;;
5939;SDS011;2995;-31.998;115.906;2023-01-10T15:17:41;8.23;;;2.57;;
5939;SDS011;2995;-31.998;115.906;2023-01-10T15:20:13;7.60;;;2.93;;
5939;SDS011;2995;-31.998;115.906;2023-01-10T15:22:45;9.80;;;3.63;;
5939;SDS011;2995;-31.998;115.906;2023-01-10T15:25:26;11.17;;;3.17;;
5939;SDS011;2995;-31.998;115.906;2023-01-10T15:28:03;8.33;;;2.90;;
5939;SDS011;2995;-31.998;115.906;2023-01-10T15:30:42;8.40;;;3.43;;
5939;SDS011;2995;-31.998;115.906;2023-01-10T15:33:18;7.30;;;2.50;;
5939;SDS011;2995;-31.998;115.906;2023-01-10T15:35:54;13.07;;;3.13;;
5939;SDS011;2995;-31.998;115.906;2023-01-10T15:38:30;8.80;;;2.87;;
5939;SDS011;2995;-31.998;115.906;2023-01-10T15:41:04;7.20;;;2.50;;